Time;durP1;ratioP1;P1;durP2;ratioP2;P2;SDS_P1;SDS_P2;PMS_P1;PMS_P2;Temp;Humidity;BMP_temperature;BMP_pressure;BME280_temperature;BME280_humidity;BME280_pressure;Samples;Min_cycle;Max_cycle;Signal;HPM_P1;HPM_P2
2020/12/08 00:01:30;;;;;;;;;;;2.50;99.90;;;;;;6193449;23;19916;-82
2020/12/08 00:03:55;;;;;;;;;;;2.40;99.90;;;;;;6193094;23;20318;-82
2020/12/08 00:06:21;;;;;;;;;;;2.40;99.90;;;;;;6221877;23;19904;-82
2020/12/08 00:08:46;;;;;;;;;;;2.40;99.90;;;;;;6195338;23;19911;-82
2020/12/08 00:11:13;;;;;;;;;;;2.40;99.90;;;;;;6195520;23;19956;-83
2020/12/08 00:13:38;;;;;;;;;;;2.30;99.90;;;;;;6194866;23;19904;-82
2020/12/08 00:16:04;;;;;;;;;;;2.30;99.90;;;;;;6220893;23;19915;-84
2020/12/08 00:18:30;;;;;;;;;;;2.30;99.90;;;;;;6221985;23;20195;-82
2020/12/08 00:20:58;;;;;;;;;;;2.30;99.90;;;;;;6195132;23;20322;-82
2020/12/08 00:23:24;;;;;;;;;;;2.30;99.90;;;;;;6194353;23;19993;-82
2020/12/08 00:25:49;;;;;;;;;;;2.30;99.90;;;;;;6220919;23;20285;-82
2020/12/08 00:28:15;;;;;;;;;;;2.30;99.90;;;;;;6197654;23;19948;-82
2020/12/08 00:30:40;;;;;;;;;;;2.20;99.90;;;;;;6194438;23;19958;-81
2020/12/08 00:33:16;;;;;;;;;;;2.20;99.90;;;;;;6192813;23;19915;-83
2020/12/08 00:35:42;;;;;;;;;;;2.20;99.90;;;;;;6193712;23;19910;-82
2020/12/08 00:38:07;;;;;;;;;;;2.20;99.90;;;;;;6219806;23;19904;-83
2020/12/08 00:40:33;;;;;;;;;;;2.20;99.90;;;;;;6219463;23;19904;-83
2020/12/08 00:42:58;;;;;;;;;;;2.10;99.90;;;;;;6193543;23;19915;-83
2020/12/08 00:45:23;;;;;;;;;;;2.10;99.90;;;;;;6194650;23;19904;-82
2020/12/08 00:47:49;;;;;;;;;;;2.10;99.90;;;;;;6222043;23;19904;-83
2020/12/08 00:50:14;;;;;;;;;;;2.10;99.90;;;;;;6195660;23;20319;-83
2020/12/08 00:52:40;;;;;;;;;;;2.00;99.90;;;;;;6221634;23;19969;-83
2020/12/08 00:55:06;;;;;;;;;;;2.00;99.90;;;;;;6194558;23;19904;-82
2020/12/08 00:57:31;;;;;;;;;;;2.00;99.90;;;;;;6221197;23;19904;-83
2020/12/08 00:59:57;;;;;;;;;;;1.90;99.90;;;;;;6195481;23;19903;-82
2020/12/08 01:02:22;;;;;;;;;;;1.90;99.90;;;;;;6194277;23;19992;-83
2020/12/08 01:04:48;;;;;;;;;;;1.80;99.90;;;;;;6221118;23;20355;-82
2020/12/08 01:07:17;;;;;;;;;;;1.80;99.90;;;;;;6194645;23;19927;-82
2020/12/08 01:09:43;;;;;;;;;;;1.80;99.90;;;;;;6221368;23;19904;-83
2020/12/08 01:12:09;;;;;;;;;;;1.80;99.90;;;;;;6220934;23;19911;-83
2020/12/08 01:14:34;;;;;;;;;;;1.70;99.90;;;;;;6221019;23;20250;-83
2020/12/08 01:17:00;;;;;;;;;;;1.80;99.90;;;;;;6221528;23;20334;-83
2020/12/08 01:19:25;;;;;;;;;;;1.70;99.90;;;;;;6195208;23;19904;-82
2020/12/08 01:21:52;;;;;;;;;;;1.70;99.90;;;;;;6221719;23;19915;-82
2020/12/08 01:24:17;;;;;;;;;;;1.70;99.90;;;;;;6194124;23;19904;-83
2020/12/08 01:26:43;;;;;;;;;;;1.70;99.90;;;;;;6221200;23;19911;-83
2020/12/08 01:29:08;;;;;;;;;;;1.70;99.90;;;;;;6221096;23;19938;-82
2020/12/08 01:31:34;;;;;;;;;;;1.60;99.90;;;;;;6194836;23;19910;-83
2020/12/08 01:33:59;;;;;;;;;;;1.60;99.90;;;;;;6194112;23;20350;-82
2020/12/08 01:36:25;;;;;;;;;;;1.60;99.90;;;;;;6194623;23;19931;-82
2020/12/08 01:38:50;;;;;;;;;;;1.70;99.90;;;;;;6195276;23;19908;-82
2020/12/08 01:41:18;;;;;;;;;;;1.70;99.90;;;;;;6194186;23;20038;-82
2020/12/08 01:43:56;;;;;;;;;;;1.70;99.90;;;;;;6193842;23;19904;-82
2020/12/08 01:46:23;;;;;;;;;;;1.70;99.90;;;;;;6194320;23;19904;-83
2020/12/08 01:48:49;;;;;;;;;;;1.70;99.90;;;;;;6221219;23;19966;-82
2020/12/08 01:51:16;;;;;;;;;;;1.70;99.90;;;;;;6220801;23;19904;-82
2020/12/08 01:53:41;;;;;;;;;;;1.70;99.90;;;;;;6194593;23;19919;-82
2020/12/08 01:56:08;;;;;;;;;;;1.80;99.90;;;;;;6220947;23;19904;-82
2020/12/08 01:58:33;;;;;;;;;;;1.80;99.90;;;;;;6194687;23;19927;-83
2020/12/08 02:00:59;;;;;;;;;;;1.90;99.90;;;;;;6217943;23;19983;-83
2020/12/08 02:08:58;;;;;;;;;;;1.90;99.90;;;;;;6208394;23;19914;-83
2020/12/08 02:11:26;;;;;;;;;;;1.90;99.90;;;;;;6202987;23;19931;-83
2020/12/08 02:14:24;;;;;;;;;;;;;;;;;;;;;
2020/12/08 02:17:09;;;;;;;;;;;;;;;;;;;;;
2020/12/08 02:20:03;;;;;;;;;;;;;;;;;;;;;
2020/12/08 02:22:46;;;;;;;;;;;;;;;;;;;;;
2020/12/08 02:25:42;;;;;;;;;;;1.90;99.90;;;;;;6229023;23;19975;-83
2020/12/08 02:28:30;;;;;;;;;;;1.90;99.90;;;;;;6228454;23;19907;-83
2020/12/08 02:34:07;;;;;;;;;;;1.90;99.90;;;;;;6212141;23;19904;-83
2020/12/08 02:36:33;;;;;;;;;;;2.00;99.90;;;;;;6229916;23;19904;-83
2020/12/08 02:39:28;;;;;;;;;;;;;;;;;;;;;
2020/12/08 02:41:58;;;;;;;;;;;2.00;99.90;;;;;;6229336;23;20389;-83
2020/12/08 02:47:30;;;;;;;;;;;;;;;;;;;;;
2020/12/08 02:50:15;;;;;;;;;;;2.10;99.90;;;;;;6242350;22;19907;-83
2020/12/08 02:53:01;;;;;;;;;;;2.10;99.90;;;;;;6227974;23;19908;-82
2020/12/08 02:58:21;;;;;;;;;;;2.10;99.90;;;;;;6212139;23;19904;-83
2020/12/08 03:01:01;;;;;;;;;;;;;;;;;;;;;
2020/12/08 03:03:30;;;;;;;;;;;2.10;99.90;;;;;;6227899;23;19932;-83
2020/12/08 03:05:55;;;;;;;;;;;2.10;99.90;;;;;;6228010;23;19934;-83
2020/12/08 03:08:21;;;;;;;;;;;2.10;99.90;;;;;;6201374;23;19908;-83
2020/12/08 03:10:47;;;;;;;;;;;2.10;99.90;;;;;;6227985;23;19908;-82
2020/12/08 03:13:30;;;;;;;;;;;2.10;99.90;;;;;;6228588;23;19935;-82
2020/12/08 03:16:16;;;;;;;;;;;2.00;99.90;;;;;;6227841;23;20319;-83
2020/12/08 03:19:11;;;;;;;;;;;;;;;;;;;;;
2020/12/08 03:28:08;;;;;;;;;;;;;;;;;;;;;
2020/12/08 03:30:52;;;;;;;;;;;;;;;;;;;;;
2020/12/08 03:33:37;;;;;;;;;;;;;;;;;;;;;
2020/12/08 03:36:08;;;;;;;;;;;1.90;99.90;;;;;;6227018;23;19923;-82
2020/12/08 03:38:45;;;;;;;;;;;;;;;;;;;;;
2020/12/08 03:47:15;;;;;;;;;;;;;;;;;;;;;
2020/12/08 03:50:00;;;;;;;;;;;;;;;;;;;;;
2020/12/08 03:55:43;;;;;;;;;;;1.90;99.90;;;;;;6203734;23;19904;-82
2020/12/08 03:58:11;;;;;;;;;;;2.00;99.90;;;;;;6202323;23;19935;-81
2020/12/08 04:00:49;;;;;;;;;;;;;;;;;;;;;
2020/12/08 04:03:24;;;;;;;;;;;2.00;99.90;;;;;;6226770;23;19927;-83
2020/12/08 04:06:00;;;;;;;;;;;2.00;99.90;;;;;;6224035;23;19912;-83
2020/12/08 04:08:41;;;;;;;;;;;;;;;;;;;;;
2020/12/08 04:11:32;;;;;;;;;;;2.10;99.90;;;;;;6226758;23;19931;-83
2020/12/08 04:17:52;;;;;;;;;;;2.20;99.90;;;;;;6213869;23;19935;-82
2020/12/08 04:20:14;;;;;;;;;;;2.20;99.90;;;;;;6220283;23;20354;-81
2020/12/08 04:29:15;;;;;;;;;;;;;;;;;;;;;
2020/12/08 04:31:40;;;;;;;;;;;2.30;99.90;;;;;;6223833;23;19978;-83
2020/12/08 04:34:06;;;;;;;;;;;2.20;99.90;;;;;;6202870;23;19904;-81
2020/12/08 04:36:31;;;;;;;;;;;2.20;99.90;;;;;;6202894;23;19931;-83
2020/12/08 04:38:59;;;;;;;;;;;2.20;99.90;;;;;;6228842;23;20255;-82
2020/12/08 04:41:27;;;;;;;;;;;2.20;99.90;;;;;;6228708;23;19943;-83
2020/12/08 04:43:58;;;;;;;;;;;2.20;99.90;;;;;;6229223;23;19990;-82
2020/12/08 04:46:26;;;;;;;;;;;2.20;99.90;;;;;;6229318;23;19908;-84
2020/12/08 04:48:57;;;;;;;;;;;2.30;99.90;;;;;;6204441;23;19904;-83
2020/12/08 04:57:13;;;;;;;;;;;;;;;;;;;;;
2020/12/08 04:59:44;;;;;;;;;;;2.50;99.90;;;;;;6228563;23;19928;-83
2020/12/08 05:02:25;;;;;;;;;;;;;;;;;;;;;
2020/12/08 05:08:20;;;;;;;;;;;2.70;99.90;;;;;;6218465;23;19904;-82
2020/12/08 05:11:08;;;;;;;;;;;2.80;99.90;;;;;;6201959;23;19926;-82
2020/12/08 05:14:04;;;;;;;;;;;2.80;99.90;;;;;;6202948;23;19934;-83
2020/12/08 05:19:31;;;;;;;;;;;;;;;;;;;;;
2020/12/08 05:22:04;;;;;;;;;;;2.90;99.90;;;;;;6229120;23;19935;-83
2020/12/08 05:25:00;;;;;;;;;;;;;;;;;;;;;
2020/12/08 05:28:06;;;;;;;;;;;2.90;99.90;;;;;;6222767;23;19927;-83
2020/12/08 05:30:42;;;;;;;;;;;2.90;99.90;;;;;;6228992;23;19948;-82
2020/12/08 05:33:14;;;;;;;;;;;2.90;99.90;;;;;;6202984;23;19939;-83
2020/12/08 05:35:40;;;;;;;;;;;2.90;99.90;;;;;;6202379;23;19908;-82
2020/12/08 05:38:09;;;;;;;;;;;2.90;99.90;;;;;;6203698;23;19907;-83
2020/12/08 05:40:45;;;;;;;;;;;;;;;;;;;;;
2020/12/08 05:54:53;;;;;;;;;;;;;;;;;;;;;
2020/12/08 06:09:35;;;;;;;;;;;2.90;99.90;;;;;;6213653;23;19926;-83
2020/12/08 06:24:25;;;;;;;;;;;3.10;99.90;;;;;;6214256;23;19942;-82
2020/12/08 06:27:23;;;;;;;;;;;;;;;;;;;;;
2020/12/08 06:33:04;;;;;;;;;;;;;;;;;;;;;
2020/12/08 06:39:02;;;;;;;;;;;3.20;99.90;;;;;;6219805;23;19930;-83
2020/12/08 06:44:35;;;;;;;;;;;3.30;99.90;;;;;;6214733;23;19904;-82
2020/12/08 06:47:24;;;;;;;;;;;3.30;99.90;;;;;;6229056;23;19930;-82
2020/12/08 06:52:47;;;;;;;;;;;;;;;;;;;;;
2020/12/08 06:55:52;;;;;;;;;;;;;;;;;;;;;
2020/12/08 06:58:20;;;;;;;;;;;3.40;99.90;;;;;;6217685;23;19931;-82
2020/12/08 07:00:58;;;;;;;;;;;;;;;;;;;;;
2020/12/08 07:06:32;;;;;;;;;;;;;;;;;;;;;
2020/12/08 07:09:15;;;;;;;;;;;;;;;;;;;;;
2020/12/08 07:18:36;;;;;;;;;;;3.80;99.90;;;;;;6201812;23;19904;-84
2020/12/08 07:21:11;;;;;;;;;;;;;;;;;;;;;
2020/12/08 07:27:23;;;;;;;;;;;3.80;99.90;;;;;;6204464;23;19904;-83
2020/12/08 07:36:16;;;;;;;;;;;;;;;;;;;;;
2020/12/08 07:38:51;;;;;;;;;;;3.90;99.90;;;;;;6213765;23;20383;-84
2020/12/08 07:41:46;;;;;;;;;;;3.90;99.90;;;;;;6222522;23;19908;-84
2020/12/08 07:44:24;;;;;;;;;;;3.90;99.90;;;;;;6181559;23;19904;-83
2020/12/08 07:47:18;;;;;;;;;;;4.00;99.90;;;;;;6221691;23;19904;-83
2020/12/08 07:49:42;;;;;;;;;;;3.90;99.90;;;;;;6220598;23;19911;-84
2020/12/08 07:52:18;;;;;;;;;;;;;;;;;;;;;
2020/12/08 07:54:51;;;;;;;;;;;4.00;99.90;;;;;;6221967;23;19932;-83
2020/12/08 08:00:23;;;;;;;;;;;4.00;99.90;;;;;;6201074;23;19904;-83
2020/12/08 08:03:00;;;;;;;;;;;;;;;;;;;;;
2020/12/08 08:08:28;;;;;;;;;;;4.10;99.90;;;;;;6200250;23;19939;-82
2020/12/08 08:11:20;;;;;;;;;;;4.10;99.90;;;;;;6222027;23;19904;-83
2020/12/08 08:14:12;;;;;;;;;;;;;;;;;;;;;
2020/12/08 08:16:42;;;;;;;;;;;4.20;99.90;;;;;;6220305;23;20395;-82
2020/12/08 08:19:07;;;;;;;;;;;4.20;99.90;;;;;;6220763;23;19958;-82
2020/12/08 08:21:33;;;;;;;;;;;4.20;99.90;;;;;;6221563;23;19908;-82
2020/12/08 08:23:59;;;;;;;;;;;4.20;99.90;;;;;;6194234;23;19904;-82
2020/12/08 08:26:32;;;;;;;;;;;4.20;99.90;;;;;;6221359;23;19939;-83
2020/12/08 08:28:57;;;;;;;;;;;4.20;99.90;;;;;;6193563;23;19939;-83
2020/12/08 08:31:23;;;;;;;;;;;4.20;99.90;;;;;;6221998;23;19904;-83
2020/12/08 08:33:48;;;;;;;;;;;4.20;99.90;;;;;;6194806;23;19903;-83
2020/12/08 08:36:14;;;;;;;;;;;4.30;99.90;;;;;;6222178;23;19903;-83
2020/12/08 08:38:42;;;;;;;;;;;4.30;99.90;;;;;;6221492;23;19919;-82
2020/12/08 08:41:07;;;;;;;;;;;4.30;99.90;;;;;;6227740;23;20254;-81
2020/12/08 08:43:33;;;;;;;;;;;4.40;99.90;;;;;;6233887;23;19904;-81
2020/12/08 08:45:58;;;;;;;;;;;4.40;99.90;;;;;;6232860;23;20223;-83
2020/12/08 08:48:24;;;;;;;;;;;4.50;99.90;;;;;;6225461;23;20091;-82
2020/12/08 08:50:50;;;;;;;;;;;4.50;99.90;;;;;;6226044;23;19904;-82
2020/12/08 08:53:15;;;;;;;;;;;4.60;99.90;;;;;;6229146;23;19926;-83
2020/12/08 08:55:41;;;;;;;;;;;4.70;99.90;;;;;;6227362;23;19904;-82
2020/12/08 08:58:06;;;;;;;;;;;4.70;99.90;;;;;;6228026;23;19907;-81
2020/12/08 09:00:32;;;;;;;;;;;4.80;99.90;;;;;;6227361;23;19927;-82
2020/12/08 09:02:58;;;;;;;;;;;4.90;99.90;;;;;;6224785;23;20266;-82
2020/12/08 09:05:24;;;;;;;;;;;4.90;99.90;;;;;;6220294;23;20374;-82
2020/12/08 09:07:50;;;;;;;;;;;4.90;99.90;;;;;;6227108;23;19927;-82
2020/12/08 09:10:15;;;;;;;;;;;5.00;99.90;;;;;;6227533;23;20357;-82
2020/12/08 09:12:43;;;;;;;;;;;5.00;99.90;;;;;;6228580;23;19904;-82
2020/12/08 09:15:10;;;;;;;;;;;5.10;99.90;;;;;;6226226;23;19904;-82
2020/12/08 09:17:35;;;;;;;;;;;5.20;99.90;;;;;;6229071;23;19931;-83
2020/12/08 09:20:03;;;;;;;;;;;5.30;99.90;;;;;;6226909;23;19943;-82
2020/12/08 09:22:29;;;;;;;;;;;5.50;99.90;;;;;;6229274;23;19907;-82
2020/12/08 09:24:54;;;;;;;;;;;5.50;99.90;;;;;;6229697;23;19904;-82
2020/12/08 09:27:20;;;;;;;;;;;5.50;99.90;;;;;;6230157;23;19904;-83
2020/12/08 09:29:45;;;;;;;;;;;5.50;99.90;;;;;;6228042;23;19928;-82
2020/12/08 09:32:11;;;;;;;;;;;5.50;99.90;;;;;;6230877;23;20342;-82
2020/12/08 09:34:36;;;;;;;;;;;5.60;99.90;;;;;;6236869;23;19907;-82
2020/12/08 09:37:02;;;;;;;;;;;5.60;99.90;;;;;;6241122;23;19888;-82
2020/12/08 09:39:28;;;;;;;;;;;5.70;99.90;;;;;;6234456;23;19915;-83
2020/12/08 09:41:54;;;;;;;;;;;5.80;99.90;;;;;;6226690;23;19934;-82
2020/12/08 09:44:19;;;;;;;;;;;5.80;99.90;;;;;;6228760;23;19911;-81
2020/12/08 09:46:45;;;;;;;;;;;6.00;99.90;;;;;;6228498;23;19888;-82
2020/12/08 09:49:11;;;;;;;;;;;6.10;99.90;;;;;;6229691;23;19904;-82
2020/12/08 09:51:37;;;;;;;;;;;6.20;99.90;;;;;;6231445;23;20012;-82
2020/12/08 09:54:03;;;;;;;;;;;6.30;99.90;;;;;;6228726;23;19938;-82
2020/12/08 09:56:28;;;;;;;;;;;6.40;99.90;;;;;;6228657;23;19919;-82
2020/12/08 09:58:54;;;;;;;;;;;6.50;99.90;;;;;;6227667;23;19908;-82
2020/12/08 10:01:30;;;;;;;;;;;6.50;99.90;;;;;;6226798;23;19927;-83
2020/12/08 10:03:55;;;;;;;;;;;6.60;99.90;;;;;;6228139;23;20330;-82
2020/12/08 10:06:21;;;;;;;;;;;6.60;99.90;;;;;;6226734;23;19915;-82
2020/12/08 10:08:47;;;;;;;;;;;6.60;99.90;;;;;;6229989;23;19910;-83
2020/12/08 10:11:16;;;;;;;;;;;6.60;99.90;;;;;;6228914;23;19929;-83
2020/12/08 10:13:41;;;;;;;;;;;6.60;99.90;;;;;;6227917;23;19912;-83
2020/12/08 10:16:07;;;;;;;;;;;6.60;99.90;;;;;;6228420;23;19934;-82
2020/12/08 10:18:33;;;;;;;;;;;6.70;99.90;;;;;;6229942;23;19914;-82
2020/12/08 10:20:59;;;;;;;;;;;6.80;99.90;;;;;;6229681;23;19904;-82
2020/12/08 10:23:24;;;;;;;;;;;6.90;99.90;;;;;;6230076;23;19934;-82
2020/12/08 10:25:50;;;;;;;;;;;7.00;99.90;;;;;;6229820;23;19910;-82
2020/12/08 10:28:15;;;;;;;;;;;7.30;99.90;;;;;;6230871;23;19908;-83
2020/12/08 10:30:41;;;;;;;;;;;7.50;99.90;;;;;;6232390;23;20404;-82
2020/12/08 10:33:06;;;;;;;;;;;7.80;99.90;;;;;;6227715;23;19939;-82
2020/12/08 10:35:32;;;;;;;;;;;8.10;99.90;;;;;;6228323;23;19904;-82
2020/12/08 10:37:57;;;;;;;;;;;8.20;99.90;;;;;;6226281;23;19904;-81
2020/12/08 10:40:23;;;;;;;;;;;8.40;99.90;;;;;;6227612;23;19955;-81
2020/12/08 10:42:48;;;;;;;;;;;8.50;99.90;;;;;;6228511;23;19940;-82
2020/12/08 10:45:13;;;;;;;;;;;8.70;99.90;;;;;;6229900;23;19904;-82
2020/12/08 10:47:39;;;;;;;;;;;8.80;99.90;;;;;;6228946;23;19904;-82
2020/12/08 10:50:04;;;;;;;;;;;9.00;99.90;;;;;;6229099;23;19904;-82
2020/12/08 10:52:31;;;;;;;;;;;9.10;99.90;;;;;;6229562;23;19904;-84
2020/12/08 10:54:57;;;;;;;;;;;9.10;99.90;;;;;;6230287;23;19911;-82
2020/12/08 10:57:22;;;;;;;;;;;9.00;99.90;;;;;;6229578;23;19932;-83
2020/12/08 10:59:48;;;;;;;;;;;8.70;99.90;;;;;;6230738;23;19927;-82
2020/12/08 11:02:14;;;;;;;;;;;8.40;99.90;;;;;;6229428;23;19983;-82
2020/12/08 11:04:39;;;;;;;;;;;8.10;99.90;;;;;;6229495;23;20285;-82
2020/12/08 11:07:04;;;;;;;;;;;8.00;99.90;;;;;;6229045;23;19904;-82
2020/12/08 11:09:30;;;;;;;;;;;7.70;99.90;;;;;;6229794;23;19904;-82
2020/12/08 11:11:55;;;;;;;;;;;7.50;99.90;;;;;;6229138;23;19935;-81
2020/12/08 11:14:21;;;;;;;;;;;7.40;99.90;;;;;;6229366;23;19979;-82
2020/12/08 11:16:46;;;;;;;;;;;7.30;99.90;;;;;;6230984;23;20001;-81
2020/12/08 11:19:12;;;;;;;;;;;7.20;99.90;;;;;;6229806;23;19923;-84
2020/12/08 11:21:39;;;;;;;;;;;7.30;99.90;;;;;;6225876;23;20245;-83
2020/12/08 11:24:05;;;;;;;;;;;7.40;99.90;;;;;;6227540;23;19911;-82
2020/12/08 11:26:32;;;;;;;;;;;7.50;99.90;;;;;;6228421;23;19983;-82
2020/12/08 11:28:58;;;;;;;;;;;7.50;99.90;;;;;;6228225;23;19958;-82
2020/12/08 11:31:23;;;;;;;;;;;7.50;99.90;;;;;;6228379;23;19953;-82
2020/12/08 11:33:49;;;;;;;;;;;7.60;99.90;;;;;;6226424;23;19931;-82
2020/12/08 11:36:14;;;;;;;;;;;7.80;99.90;;;;;;6228127;23;19928;-82
2020/12/08 11:38:40;;;;;;;;;;;7.90;99.90;;;;;;6229992;23;19927;-82
2020/12/08 11:41:06;;;;;;;;;;;8.10;99.90;;;;;;6228190;23;19908;-82
2020/12/08 11:43:32;;;;;;;;;;;8.20;99.90;;;;;;6227460;23;19915;-82
2020/12/08 11:45:58;;;;;;;;;;;8.30;99.90;;;;;;6201201;23;19904;-82
2020/12/08 11:48:23;;;;;;;;;;;8.40;99.90;;;;;;6228906;23;19904;-82
2020/12/08 11:50:49;;;;;;;;;;;8.40;99.90;;;;;;6229819;23;20309;-82
2020/12/08 11:53:15;;;;;;;;;;;8.30;99.90;;;;;;6229337;23;19904;-82
2020/12/08 11:55:41;;;;;;;;;;;8.20;99.90;;;;;;6228588;23;19911;-81
2020/12/08 11:58:06;;;;;;;;;;;8.10;99.90;;;;;;6229795;23;19904;-82
2020/12/08 12:00:32;;;;;;;;;;;8.10;99.90;;;;;;6229192;23;19904;-81
2020/12/08 12:02:57;;;;;;;;;;;8.00;99.90;;;;;;6228001;23;19907;-81
2020/12/08 12:05:23;;;;;;;;;;;7.90;99.90;;;;;;6227933;23;19986;-82
2020/12/08 12:07:48;;;;;;;;;;;7.90;99.90;;;;;;6200863;23;19986;-82
2020/12/08 12:10:13;;;;;;;;;;;7.90;99.90;;;;;;6228515;23;19904;-82
2020/12/08 12:12:39;;;;;;;;;;;8.00;99.90;;;;;;6228632;23;19911;-82
2020/12/08 12:15:04;;;;;;;;;;;7.90;99.90;;;;;;6227169;23;20353;-82
2020/12/08 12:17:31;;;;;;;;;;;7.90;99.90;;;;;;6203204;23;19948;-82
2020/12/08 12:19:57;;;;;;;;;;;7.80;99.90;;;;;;6228139;23;19904;-82
2020/12/08 12:22:26;;;;;;;;;;;7.80;99.90;;;;;;6230541;23;19912;-83
2020/12/08 12:24:51;;;;;;;;;;;7.70;99.90;;;;;;6228630;23;19948;-81
2020/12/08 12:27:17;;;;;;;;;;;7.60;99.90;;;;;;6227651;23;19904;-81
2020/12/08 12:29:42;;;;;;;;;;;7.50;99.90;;;;;;6227628;23;19910;-81
2020/12/08 12:32:08;;;;;;;;;;;7.40;99.90;;;;;;6228189;23;19954;-83
2020/12/08 12:34:33;;;;;;;;;;;7.20;99.90;;;;;;6227753;23;19990;-82
2020/12/08 12:36:59;;;;;;;;;;;7.10;99.90;;;;;;6228689;23;19911;-82
2020/12/08 12:39:24;;;;;;;;;;;7.00;99.90;;;;;;6202732;23;19923;-82
2020/12/08 12:41:50;;;;;;;;;;;6.90;99.90;;;;;;6231032;23;19907;-82
2020/12/08 12:44:15;;;;;;;;;;;6.80;99.90;;;;;;6203732;23;19908;-83
2020/12/08 12:46:41;;;;;;;;;;;6.80;99.90;;;;;;6231124;23;19904;-81
2020/12/08 12:49:06;;;;;;;;;;;6.70;99.90;;;;;;6230863;23;19904;-82
2020/12/08 12:51:32;;;;;;;;;;;6.80;99.90;;;;;;6230597;23;19943;-83
2020/12/08 12:54:00;;;;;;;;;;;6.90;99.90;;;;;;6229287;23;19904;-82
2020/12/08 12:56:26;;;;;;;;;;;7.00;99.90;;;;;;6229898;23;19918;-82
2020/12/08 12:58:52;;;;;;;;;;;7.20;99.90;;;;;;6235367;23;19911;-82
2020/12/08 13:01:18;;;;;;;;;;;7.50;99.90;;;;;;6241705;23;19904;-82
2020/12/08 13:03:43;;;;;;;;;;;7.70;99.90;;;;;;6235884;23;19950;-83
2020/12/08 13:06:09;;;;;;;;;;;7.90;99.90;;;;;;6229040;23;19912;-82
2020/12/08 13:08:35;;;;;;;;;;;8.00;99.90;;;;;;6229361;23;20165;-84
2020/12/08 13:11:01;;;;;;;;;;;8.10;99.90;;;;;;6229578;23;19923;-83
2020/12/08 13:13:26;;;;;;;;;;;8.10;99.90;;;;;;6226759;23;19972;-82
2020/12/08 13:15:52;;;;;;;;;;;8.20;99.90;;;;;;6228220;23;19904;-82
2020/12/08 13:18:18;;;;;;;;;;;8.20;99.90;;;;;;6227363;23;19984;-82
2020/12/08 13:20:44;;;;;;;;;;;8.40;99.90;;;;;;6200724;23;20234;-82
2020/12/08 13:23:09;;;;;;;;;;;8.70;99.90;;;;;;6227666;23;19962;-82
2020/12/08 13:25:35;;;;;;;;;;;8.90;99.90;;;;;;6227679;23;19911;-82
2020/12/08 13:28:00;;;;;;;;;;;9.00;99.90;;;;;;6230538;23;19930;-82
2020/12/08 13:30:26;;;;;;;;;;;9.00;99.90;;;;;;6233728;23;19908;-82
2020/12/08 13:32:51;;;;;;;;;;;9.00;99.90;;;;;;6231782;23;19904;-82
2020/12/08 13:35:17;;;;;;;;;;;8.90;99.90;;;;;;6228928;23;19904;-83
2020/12/08 13:37:43;;;;;;;;;;;8.80;99.90;;;;;;6202875;23;19904;-82
2020/12/08 13:40:09;;;;;;;;;;;8.80;99.90;;;;;;6229405;23;19907;-82
2020/12/08 13:42:34;;;;;;;;;;;8.80;99.90;;;;;;6228806;23;20326;-82
2020/12/08 13:44:59;;;;;;;;;;;8.70;99.90;;;;;;6229183;23;19911;-82
2020/12/08 13:47:25;;;;;;;;;;;8.60;99.90;;;;;;6230201;23;19907;-83
2020/12/08 13:49:51;;;;;;;;;;;8.50;99.90;;;;;;6229885;23;19904;-82
2020/12/08 13:52:16;;;;;;;;;;;8.30;99.90;;;;;;6228959;23;19904;-82
2020/12/08 13:54:41;;;;;;;;;;;8.20;99.90;;;;;;6229494;23;19911;-82
2020/12/08 13:57:07;;;;;;;;;;;8.00;99.90;;;;;;6201749;23;19904;-82
2020/12/08 13:59:33;;;;;;;;;;;7.80;99.90;;;;;;6229962;23;20022;-82
2020/12/08 14:01:58;;;;;;;;;;;7.70;99.90;;;;;;6229084;23;19983;-82
2020/12/08 14:04:24;;;;;;;;;;;7.50;99.90;;;;;;6228834;23;19912;-82
2020/12/08 14:06:49;;;;;;;;;;;7.40;99.90;;;;;;6229204;23;19904;-82
2020/12/08 14:09:15;;;;;;;;;;;7.30;99.90;;;;;;6229460;23;19908;-81
2020/12/08 14:11:41;;;;;;;;;;;7.30;99.90;;;;;;6228552;23;20111;-82
2020/12/08 14:14:07;;;;;;;;;;;7.20;99.90;;;;;;6228716;23;19904;-81
2020/12/08 14:16:32;;;;;;;;;;;7.20;99.90;;;;;;6228893;23;19911;-82
2020/12/08 14:18:58;;;;;;;;;;;7.20;99.90;;;;;;6228310;23;19948;-82
2020/12/08 14:21:24;;;;;;;;;;;7.10;99.90;;;;;;6230230;23;19948;-82
2020/12/08 14:23:49;;;;;;;;;;;7.10;99.90;;;;;;6229522;23;19904;-82
2020/12/08 14:26:18;;;;;;;;;;;7.00;99.90;;;;;;6202311;23;19935;-82
2020/12/08 14:28:44;;;;;;;;;;;7.00;99.90;;;;;;6229059;23;19904;-82
2020/12/08 14:31:09;;;;;;;;;;;7.00;99.90;;;;;;6229030;23;19954;-83
2020/12/08 14:33:35;;;;;;;;;;;6.90;99.90;;;;;;6229199;23;19908;-82
2020/12/08 14:36:00;;;;;;;;;;;6.90;99.90;;;;;;6227967;23;19904;-82
2020/12/08 14:38:26;;;;;;;;;;;6.90;99.90;;;;;;6229238;23;20349;-82
2020/12/08 14:40:51;;;;;;;;;;;6.80;99.90;;;;;;6228750;23;19979;-82
2020/12/08 14:43:17;;;;;;;;;;;6.80;99.90;;;;;;6229767;23;19908;-82
2020/12/08 14:45:42;;;;;;;;;;;6.80;99.90;;;;;;6229289;23;19983;-83
2020/12/08 14:48:07;;;;;;;;;;;6.80;99.90;;;;;;6229911;23;19904;-84
2020/12/08 14:50:33;;;;;;;;;;;6.80;99.90;;;;;;6230168;23;19904;-82
2020/12/08 14:53:00;;;;;;;;;;;6.80;99.90;;;;;;6203330;23;19904;-82
2020/12/08 14:55:25;;;;;;;;;;;6.70;99.90;;;;;;6228807;23;19915;-82
2020/12/08 14:57:50;;;;;;;;;;;6.70;99.90;;;;;;6231067;23;19904;-82
2020/12/08 15:00:16;;;;;;;;;;;6.70;99.90;;;;;;6230242;23;19904;-82
2020/12/08 15:02:41;;;;;;;;;;;6.60;99.90;;;;;;6227849;23;19956;-82
2020/12/08 15:05:07;;;;;;;;;;;6.60;99.90;;;;;;6228203;23;19919;-82
2020/12/08 15:07:32;;;;;;;;;;;6.60;99.90;;;;;;6228856;23;19908;-82
2020/12/08 15:09:58;;;;;;;;;;;6.60;99.90;;;;;;6228709;23;19988;-80
2020/12/08 15:12:23;;;;;;;;;;;6.50;99.90;;;;;;6226770;23;19951;-81
2020/12/08 15:14:49;;;;;;;;;;;6.60;99.90;;;;;;6225869;23;19904;-81
2020/12/08 15:17:14;;;;;;;;;;;6.50;99.90;;;;;;6227221;23;19988;-81
2020/12/08 15:19:40;;;;;;;;;;;6.50;99.90;;;;;;6227318;23;20326;-81
2020/12/08 15:22:05;;;;;;;;;;;6.60;99.90;;;;;;6225928;23;19939;-81
2020/12/08 15:24:31;;;;;;;;;;;6.60;99.90;;;;;;6225231;23;19948;-82
2020/12/08 15:26:56;;;;;;;;;;;6.60;99.90;;;;;;6225260;23;19954;-82
2020/12/08 15:29:22;;;;;;;;;;;6.60;99.90;;;;;;6196270;23;19939;-81
2020/12/08 15:31:47;;;;;;;;;;;6.50;99.90;;;;;;6199277;23;19911;-81
2020/12/08 15:34:12;;;;;;;;;;;6.50;99.90;;;;;;6224710;23;19984;-81
2020/12/08 15:36:38;;;;;;;;;;;6.50;99.90;;;;;;6226064;23;19958;-81
2020/12/08 15:39:06;;;;;;;;;;;6.50;99.90;;;;;;6225197;23;19926;-81
2020/12/08 15:41:32;;;;;;;;;;;6.50;99.90;;;;;;6226634;23;19911;-82
2020/12/08 15:43:57;;;;;;;;;;;6.60;99.90;;;;;;6198548;23;20234;-82
2020/12/08 15:46:23;;;;;;;;;;;6.50;99.90;;;;;;6225003;23;19954;-82
2020/12/08 15:48:52;;;;;;;;;;;6.50;99.90;;;;;;6225801;23;19911;-82
2020/12/08 15:51:18;;;;;;;;;;;6.50;99.90;;;;;;6226178;23;19936;-82
2020/12/08 15:53:44;;;;;;;;;;;6.50;99.90;;;;;;6224046;23;19927;-82
2020/12/08 15:56:09;;;;;;;;;;;6.50;99.90;;;;;;6196088;23;19904;-83
2020/12/08 15:58:35;;;;;;;;;;;6.50;99.90;;;;;;6226948;23;20001;-83
2020/12/08 16:01:00;;;;;;;;;;;6.50;99.90;;;;;;6226508;23;19928;-83
2020/12/08 16:03:26;;;;;;;;;;;6.50;99.90;;;;;;6222377;23;19912;-81
2020/12/08 16:05:51;;;;;;;;;;;6.50;99.90;;;;;;6220318;23;19935;-82
2020/12/08 16:08:17;;;;;;;;;;;6.50;99.90;;;;;;6223477;23;20256;-80
2020/12/08 16:10:43;;;;;;;;;;;6.60;99.90;;;;;;6220658;23;19956;-80
2020/12/08 16:13:08;;;;;;;;;;;6.50;99.90;;;;;;6221745;23;19904;-81
2020/12/08 16:15:34;;;;;;;;;;;6.50;99.90;;;;;;6220991;23;20036;-80
2020/12/08 16:17:59;;;;;;;;;;;6.50;99.90;;;;;;6195412;23;19904;-80
2020/12/08 16:20:27;;;;;;;;;;;6.50;99.90;;;;;;6225026;23;19940;-81
2020/12/08 16:22:55;;;;;;;;;;;6.50;99.90;;;;;;6211719;23;19931;-81
2020/12/08 16:25:21;;;;;;;;;;;6.50;99.90;;;;;;6209529;23;20246;-80
2020/12/08 16:27:47;;;;;;;;;;;6.50;99.90;;;;;;6220934;23;19957;-81
2020/12/08 16:30:12;;;;;;;;;;;6.40;99.90;;;;;;6220019;23;19983;-81
2020/12/08 16:32:38;;;;;;;;;;;6.50;99.90;;;;;;6220959;23;19958;-81
2020/12/08 16:35:04;;;;;;;;;;;6.40;99.90;;;;;;6220479;23;19907;-80
2020/12/08 16:37:30;;;;;;;;;;;6.50;99.90;;;;;;6219987;23;19904;-82
2020/12/08 16:39:55;;;;;;;;;;;6.40;99.90;;;;;;6193186;23;19908;-80
2020/12/08 16:42:21;;;;;;;;;;;6.40;99.90;;;;;;6223554;23;19914;-80
2020/12/08 16:44:46;;;;;;;;;;;6.40;99.90;;;;;;6228248;23;19904;-81
2020/12/08 16:47:12;;;;;;;;;;;6.40;99.90;;;;;;6194242;23;19904;-81
2020/12/08 16:49:37;;;;;;;;;;;6.40;99.90;;;;;;6219617;23;19908;-80
2020/12/08 16:52:06;;;;;;;;;;;6.40;99.90;;;;;;6219774;23;19915;-80
2020/12/08 16:54:32;;;;;;;;;;;6.40;99.90;;;;;;6220471;23;19932;-81
2020/12/08 16:56:58;;;;;;;;;;;6.40;99.90;;;;;;6169441;23;19911;-81
2020/12/08 16:59:23;;;;;;;;;;;6.40;99.90;;;;;;6222203;23;19904;-80
2020/12/08 17:01:48;;;;;;;;;;;6.40;99.90;;;;;;6221744;23;20289;-81
2020/12/08 17:04:14;;;;;;;;;;;6.40;99.90;;;;;;6222627;23;19912;-81
2020/12/08 17:06:39;;;;;;;;;;;6.40;99.90;;;;;;6223110;23;19904;-80
2020/12/08 17:09:05;;;;;;;;;;;6.40;99.90;;;;;;6224328;23;19912;-80
2020/12/08 17:11:30;;;;;;;;;;;6.40;99.90;;;;;;6223166;23;19935;-79
2020/12/08 17:13:56;;;;;;;;;;;6.40;99.90;;;;;;6222761;23;19904;-79
2020/12/08 17:16:21;;;;;;;;;;;6.40;99.90;;;;;;6195879;23;20288;-79
2020/12/08 17:18:47;;;;;;;;;;;6.40;99.90;;;;;;6224265;23;19903;-79